Time;durP1;ratioP1;P1;durP2;ratioP2;P2;SDS_P1;SDS_P2;PMS_P1;PMS_P2;Temp;Humidity;BMP_temperature;BMP_pressure;BME280_temperature;BME280_humidity;BME280_pressure;Samples;Min_cycle;Max_cycle;Signal;HPM_P1;HPM_P2
2023/06/18 00:01:38;;;;;;;11.68;7.47;;;;;;;16.63;100.00;97302.22;10497608;27;20494;-51
2023/06/18 00:06:37;;;;;;;14.48;7.47;;;;;;;16.63;100.00;97301.34;10497845;27;20485;-51
2023/06/18 00:11:36;;;;;;;13.98;8.02;;;;;;;16.61;100.00;97304.03;10498071;27;20053;-52
2023/06/18 00:16:35;;;;;;;9.95;7.75;;;;;;;16.57;100.00;97299.78;10498004;27;20126;-49
2023/06/18 00:21:34;;;;;;;12.13;8.23;;;;;;;16.57;100.00;97301.56;10497337;27;20036;-51
2023/06/18 00:26:33;;;;;;;13.38;8.52;;;;;;;16.57;100.00;97291.09;10496657;27;20530;-49
2023/06/18 00:31:32;;;;;;;14.43;9.00;;;;;;;16.50;100.00;97293.91;10496989;27;20106;-49
2023/06/18 00:36:32;;;;;;;14.35;8.40;;;;;;;16.39;100.00;97303.84;10496581;27;20711;-51
2023/06/18 00:41:31;;;;;;;10.60;7.80;;;;;;;16.23;100.00;97281.66;10495916;27;20074;-51
2023/06/18 00:46:30;;;;;;;14.30;8.90;;;;;;;16.34;100.00;97297.06;10495639;27;20063;-51
2023/06/18 00:51:31;;;;;;;15.38;8.02;;;;;;;16.40;100.00;97291.63;10496952;27;20187;-51
2023/06/18 00:56:31;;;;;;;13.55;7.93;;;;;;;16.19;100.00;97270.47;10491786;27;20074;-50
2023/06/18 01:01:30;;;;;;;13.82;7.53;;;;;;;16.37;100.00;97294.34;10492310;27;20074;-51
2023/06/18 01:06:34;;;;;;;11.35;7.28;;;;;;;16.40;100.00;97292.50;10490912;27;20094;-50
2023/06/18 01:11:40;;;;;;;14.68;7.38;;;;;;;15.88;100.00;97198.13;10514752;27;20054;-51
2023/06/18 01:16:45;;;;;;;11.90;7.40;;;;;;;16.42;100.00;97289.81;10532891;27;20126;-49
2023/06/18 01:21:47;;;;;;;10.88;7.45;;;;;;;16.43;100.00;97289.75;10534308;27;20063;-51
2023/06/18 01:26:46;;;;;;;12.50;7.00;;;;;;;15.91;100.00;97191.94;10532264;27;20076;-50
2023/06/18 01:31:45;;;;;;;16.05;8.25;;;;;;;16.48;100.00;97289.63;10532483;27;20059;-51
2023/06/18 01:36:53;;;;;;;12.23;7.63;;;;;;;16.41;100.00;97285.47;10533809;27;20023;-50
2023/06/18 01:42:00;;;;;;;12.93;7.78;;;;;;;16.13;100.00;97238.38;10531685;27;20134;-50
2023/06/18 01:47:00;;;;;;;14.65;8.52;;;;;;;16.40;100.00;97274.16;10490835;27;20478;-52
2023/06/18 01:52:03;;;;;;;13.45;8.73;;;;;;;16.37;100.00;97265.53;10490308;27;20067;-51
2023/06/18 01:57:03;;;;;;;13.80;8.32;;;;;;;16.34;100.00;97269.09;10489732;27;20108;-51
2023/06/18 02:02:02;;;;;;;12.32;7.75;;;;;;;16.33;100.00;97274.41;10489536;27;20493;-51
2023/06/18 02:07:01;;;;;;;12.07;8.10;;;;;;;16.36;100.00;97293.47;10489902;27;20531;-49
2023/06/18 02:12:00;;;;;;;14.80;9.63;;;;;;;16.24;100.00;97289.50;10490194;27;20063;-48
2023/06/18 02:16:59;;;;;;;15.52;10.35;;;;;;;16.14;100.00;97297.66;10489080;27;20046;-49
2023/06/18 02:21:58;;;;;;;16.35;11.27;;;;;;;16.06;100.00;97311.84;10489270;27;20205;-52
2023/06/18 02:26:57;;;;;;;18.83;12.82;;;;;;;15.98;100.00;97302.53;10489333;27;20109;-50
2023/06/18 02:31:56;;;;;;;21.90;13.13;;;;;;;15.82;100.00;97287.25;10488650;27;20419;-51
2023/06/18 02:36:55;;;;;;;19.42;12.10;;;;;;;16.06;100.00;97303.13;10489494;27;20041;-50
2023/06/18 02:41:54;;;;;;;21.48;12.35;;;;;;;16.08;100.00;97298.72;10488709;27;20126;-49
2023/06/18 02:46:53;;;;;;;16.65;12.40;;;;;;;16.12;100.00;97300.34;10488710;27;20032;-49
2023/06/18 02:51:52;;;;;;;23.20;13.15;;;;;;;16.04;100.00;97281.38;10488930;27;20020;-51
2023/06/18 02:56:51;;;;;;;21.88;13.35;;;;;;;16.19;100.00;97317.56;10488599;27;20047;-50
2023/06/18 03:01:53;;;;;;;26.40;13.25;;;;;;;16.21;100.00;97314.94;10487657;27;20068;-49
2023/06/18 03:06:53;;;;;;;26.60;14.90;;;;;;;16.13;100.00;97295.97;10491370;27;20482;-50
2023/06/18 03:11:52;;;;;;;20.35;13.00;;;;;;;16.22;100.00;97317.47;10488268;27;20055;-51
2023/06/18 03:16:52;;;;;;;20.10;12.77;;;;;;;16.31;100.00;97324.19;10488342;27;20034;-52
2023/06/18 03:21:50;;;;;;;19.55;13.02;;;;;;;16.31;100.00;97326.81;10488094;27;20071;-49
2023/06/18 03:26:50;;;;;;;22.75;13.10;;;;;;;16.27;100.00;97327.81;10487999;27;20072;-51
2023/06/18 03:31:49;;;;;;;18.95;13.85;;;;;;;16.25;100.00;97325.22;10493260;27;20067;-51
2023/06/18 03:36:49;;;;;;;20.02;13.60;;;;;;;16.03;100.00;97319.78;10495810;27;20118;-49
2023/06/18 03:41:48;;;;;;;21.02;13.30;;;;;;;16.07;100.00;97320.56;10494078;27;20138;-50
2023/06/18 03:46:47;;;;;;;22.92;13.50;;;;;;;16.01;100.00;97329.44;10496011;27;20114;-51
2023/06/18 03:51:46;;;;;;;16.02;11.52;;;;;;;16.09;100.00;97324.84;10495276;27;20074;-51
2023/06/18 03:56:45;;;;;;;16.83;12.20;;;;;;;16.19;100.00;97332.44;10494530;27;20025;-51
2023/06/18 04:01:44;;;;;;;15.23;10.20;;;;;;;16.22;100.00;97335.81;10476214;27;20425;-50
2023/06/18 04:06:43;;;;;;;16.02;10.20;;;;;;;16.20;100.00;97326.28;10477158;27;20045;-50
2023/06/18 04:11:42;;;;;;;16.83;10.02;;;;;;;16.11;100.00;97318.69;10513457;27;20496;-49
2023/06/18 04:16:41;;;;;;;14.02;9.80;;;;;;;16.22;100.00;97319.25;10494813;27;20082;-51
2023/06/18 04:21:40;;;;;;;13.48;9.80;;;;;;;16.56;100.00;97357.47;10493796;27;20484;-49
2023/06/18 04:26:39;;;;;;;12.30;9.40;;;;;;;16.61;100.00;97368.69;10492813;27;20074;-48
2023/06/18 04:31:38;;;;;;;13.73;10.23;;;;;;;16.62;100.00;97362.53;10491853;27;20123;-48
2023/06/18 04:36:37;;;;;;;15.55;11.13;;;;;;;16.71;100.00;97377.94;10493252;27;20035;-48
2023/06/18 04:41:36;;;;;;;15.20;10.75;;;;;;;16.82;100.00;97375.88;10493025;27;20082;-51
2023/06/18 04:46:35;;;;;;;14.23;10.52;;;;;;;16.87;99.91;97389.69;10493243;27;20039;-49
2023/06/18 04:51:34;;;;;;;16.95;10.90;;;;;;;16.84;99.26;97394.16;10493972;27;20042;-51
2023/06/18 04:56:33;;;;;;;14.43;10.02;;;;;;;16.79;99.64;97399.50;10495857;27;20431;-51
2023/06/18 05:01:32;;;;;;;14.32;9.90;;;;;;;16.80;100.00;97406.50;10494919;27;20063;-50
2023/06/18 05:06:31;;;;;;;13.35;9.85;;;;;;;16.81;100.00;97412.59;10496375;27;20115;-51
2023/06/18 05:11:30;;;;;;;14.50;10.23;;;;;;;16.78;100.00;97413.53;10512483;27;20023;-49
2023/06/18 05:16:30;;;;;;;12.52;9.65;;;;;;;16.96;100.00;97430.50;10537269;27;20043;-52
2023/06/18 05:21:29;;;;;;;13.60;7.78;;;;;;;16.97;100.00;97428.72;10494811;28;20501;-51
2023/06/18 05:26:30;;;;;;;10.82;8.40;;;;;;;16.99;100.00;97440.00;10494433;27;20075;-49
2023/06/18 05:31:29;;;;;;;11.65;9.20;;;;;;;16.98;99.66;97443.53;10493948;27;20070;-51
2023/06/18 05:36:28;;;;;;;11.63;8.90;;;;;;;17.00;100.00;97460.06;10494497;27;20114;-50
2023/06/18 05:41:28;;;;;;;12.88;8.85;;;;;;;17.01;100.00;97459.19;10448690;27;20556;-48
2023/06/18 05:46:27;;;;;;;10.15;8.25;;;;;;;17.00;100.00;97463.53;10450979;28;20071;-50
2023/06/18 05:51:26;;;;;;;11.90;8.30;;;;;;;17.06;100.00;97470.38;10447219;28;20106;-50
2023/06/18 05:56:25;;;;;;;14.45;9.18;;;;;;;17.02;99.79;97474.84;10447565;28;20035;-51
2023/06/18 06:01:24;;;;;;;12.73;9.00;;;;;;;16.87;99.72;97473.56;10446410;28;20119;-50
2023/06/18 06:06:23;;;;;;;11.13;9.02;;;;;;;16.81;100.00;97472.88;10448633;28;20083;-48
2023/06/18 06:11:22;;;;;;;12.32;8.98;;;;;;;17.01;100.00;97481.00;10446428;28;20028;-49
2023/06/18 06:16:21;;;;;;;13.57;9.60;;;;;;;17.30;100.00;97482.69;10446564;28;20076;-49
2023/06/18 06:21:20;;;;;;;13.38;8.85;;;;;;;17.66;100.00;97485.03;10445469;28;20032;-50
2023/06/18 06:26:19;;;;;;;10.55;8.75;;;;;;;18.09;99.22;97488.81;10445325;28;20050;-50
2023/06/18 06:31:18;;;;;;;9.27;7.45;;;;;;;18.48;97.26;97497.91;10445965;28;20486;-51
2023/06/18 06:36:17;;;;;;;8.75;7.15;;;;;;;18.84;94.56;97502.75;10443786;28;20402;-52
2023/06/18 06:41:16;;;;;;;10.43;7.47;;;;;;;18.98;89.42;97498.66;10440129;28;20111;-51
2023/06/18 06:46:15;;;;;;;10.40;6.88;;;;;;;19.11;88.92;97495.53;10440233;28;20114;-51
2023/06/18 06:51:14;;;;;;;9.38;7.85;;;;;;;19.48;86.17;97496.72;10445382;28;20016;-50
2023/06/18 06:56:13;;;;;;;9.00;6.70;;;;;;;19.75;83.40;97498.22;10444509;28;20055;-51
2023/06/18 07:01:12;;;;;;;8.82;6.78;;;;;;;19.86;82.89;97496.00;10440890;28;20123;-51
2023/06/18 07:06:11;;;;;;;9.35;7.35;;;;;;;20.04;81.68;97504.03;10450970;28;20123;-50
2023/06/18 07:11:10;;;;;;;8.48;7.57;;;;;;;20.24;80.86;97506.66;10451125;28;20127;-50
2023/06/18 07:16:09;;;;;;;10.40;7.85;;;;;;;20.49;81.72;97516.13;10454134;28;20479;-50
2023/06/18 07:21:08;;;;;;;9.05;7.43;;;;;;;20.76;81.77;97507.91;10450678;28;20083;-50
2023/06/18 07:26:07;;;;;;;9.00;7.95;;;;;;;20.97;81.19;97475.25;10447308;28;20075;-52
2023/06/18 07:31:06;;;;;;;10.68;9.57;;;;;;;21.60;78.96;97505.72;10448288;28;20111;-51
2023/06/18 07:36:05;;;;;;;10.45;8.82;;;;;;;21.99;79.10;97515.22;10449860;28;20051;-49
2023/06/18 07:41:04;;;;;;;10.65;8.60;;;;;;;22.29;76.28;97510.13;10450590;28;20475;-50
2023/06/18 07:46:03;;;;;;;8.65;7.72;;;;;;;22.60;73.30;97501.47;10448130;28;20139;-52
2023/06/18 07:51:03;;;;;;;11.20;8.48;;;;;;;22.65;71.17;97507.34;10448832;28;20103;-50
2023/06/18 07:56:02;;;;;;;9.88;7.68;;;;;;;22.85;69.01;97502.78;10453671;28;20072;-49
2023/06/18 08:01:01;;;;;;;9.45;8.48;;;;;;;22.70;67.76;97510.59;10454472;28;20058;-52
2023/06/18 08:06:00;;;;;;;10.57;8.63;;;;;;;22.70;68.30;97510.59;10455362;28;20062;-51
2023/06/18 08:10:59;;;;;;;9.90;8.80;;;;;;;22.90;68.87;97511.31;10455369;28;20146;-53
2023/06/18 08:15:59;;;;;;;10.70;9.23;;;;;;;23.23;66.68;97516.53;10451886;28;20557;-51
2023/06/18 08:20:58;;;;;;;11.52;9.10;;;;;;;23.31;66.50;97516.97;10450340;28;20087;-51
2023/06/18 08:25:57;;;;;;;11.48;8.85;;;;;;;23.55;64.83;97524.50;10454137;28;20031;-52
2023/06/18 08:30:56;;;;;;;10.07;9.07;;;;;;;23.70;64.63;97525.41;10454663;28;20058;-50
2023/06/18 08:35:55;;;;;;;9.48;8.40;;;;;;;23.95;62.81;97524.84;10454690;28;20042;-49
2023/06/18 08:40:55;;;;;;;9.43;8.43;;;;;;;23.79;60.20;97535.47;10453594;28;20119;-51
2023/06/18 08:45:56;;;;;;;9.35;7.90;;;;;;;23.94;57.18;97531.09;10453693;28;20113;-52
2023/06/18 08:51:03;;;;;;;10.15;7.93;;;;;;;24.04;57.69;97533.09;10453341;28;20090;-49
2023/06/18 08:56:03;;;;;;;10.85;8.52;;;;;;;24.48;59.26;97534.06;10449121;28;20075;-53
2023/06/18 09:01:03;;;;;;;9.48;8.48;;;;;;;24.70;56.52;97529.13;10449629;28;20125;-51
2023/06/18 09:06:02;;;;;;;8.13;7.05;;;;;;;24.78;54.32;97501.25;10449346;28;20115;-51
2023/06/18 09:11:02;;;;;;;10.25;7.53;;;;;;;25.09;53.85;97530.28;10449115;28;20055;-49
2023/06/18 09:16:01;;;;;;;8.45;7.35;;;;;;;24.73;50.73;97530.75;10449244;28;20541;-51
2023/06/18 09:21:00;;;;;;;9.52;6.60;;;;;;;24.58;50.85;97529.03;10448462;28;20047;-49
2023/06/18 09:26:00;;;;;;;8.93;6.78;;;;;;;24.56;50.30;97491.97;10448789;28;20541;-52
2023/06/18 09:31:01;;;;;;;7.93;6.43;;;;;;;25.29;50.42;97530.78;10449096;28;20055;-52
2023/06/18 09:36:05;;;;;;;9.80;7.72;;;;;;;25.95;52.22;97524.69;10448660;28;20064;-52
2023/06/18 09:41:12;;;;;;;8.60;7.05;;;;;;;26.47;50.35;97527.47;10447398;28;20579;-52
2023/06/18 09:46:12;;;;;;;9.70;7.03;;;;;;;26.53;49.03;97527.88;10448606;28;20826;-52
2023/06/18 09:51:14;;;;;;;8.18;7.07;;;;;;;26.27;48.06;97531.47;10447193;28;20560;-52
2023/06/18 09:56:15;;;;;;;8.45;6.82;;;;;;;25.83;48.22;97529.97;10446880;28;20068;-52
2023/06/18 10:01:16;;;;;;;10.30;7.97;;;;;;;25.73;50.63;97527.91;10447517;28;20078;-51
2023/06/18 10:06:16;;;;;;;10.30;7.75;;;;;;;25.63;50.76;97526.84;10447353;28;20078;-50
2023/06/18 10:11:17;;;;;;;8.48;7.40;;;;;;;25.32;50.06;97525.31;10447573;28;20036;-51
2023/06/18 10:16:18;;;;;;;8.57;7.60;;;;;;;24.94;51.87;97528.56;10447642;28;20086;-51
2023/06/18 10:21:18;;;;;;;8.68;7.57;;;;;;;24.75;51.32;97518.22;10446643;28;20127;-52
2023/06/18 10:26:18;;;;;;;9.10;7.57;;;;;;;24.51;53.96;97535.66;10447343;28;20075;-51
2023/06/18 10:31:20;;;;;;;16.75;8.75;;;;;;;24.45;53.27;97515.66;10447569;28;20059;-52
2023/06/18 10:36:19;;;;;;;9.02;7.05;;;;;;;24.78;52.11;97528.66;10446736;28;20075;-51
2023/06/18 10:41:20;;;;;;;9.93;8.07;;;;;;;24.97;52.20;97488.59;10453778;28;20059;-51
2023/06/18 10:46:21;;;;;;;9.48;8.13;;;;;;;25.38;52.54;97479.72;10455518;28;20340;-52
2023/06/18 10:51:20;;;;;;;10.32;8.05;;;;;;;25.59;54.21;97512.03;10454323;28;20067;-52
2023/06/18 10:56:20;;;;;;;9.02;8.13;;;;;;;25.40;53.36;97498.22;10456916;28;20075;-52
2023/06/18 11:01:26;;;;;;;12.75;8.60;;;;;;;25.13;53.37;97480.50;10457936;28;20094;-50
2023/06/18 11:06:31;;;;;;;11.73;8.07;;;;;;;24.95;54.14;97516.19;10457804;28;20189;-51
2023/06/18 11:11:31;;;;;;;9.40;8.40;;;;;;;24.75;55.25;97510.25;10457482;28;20059;-51
2023/06/18 11:16:30;;;;;;;9.32;8.27;;;;;;;24.83;55.56;97513.31;10456754;28;20542;-52
2023/06/18 11:21:31;;;;;;;12.68;8.55;;;;;;;24.87;56.42;97506.91;10456928;28;20040;-52
2023/06/18 11:26:32;;;;;;;10.32;8.65;;;;;;;25.04;57.97;97519.09;10456439;28;20083;-51
2023/06/18 11:31:32;;;;;;;14.10;9.50;;;;;;;25.24;57.94;97507.19;10452333;28;20078;-52
2023/06/18 11:36:32;;;;;;;11.55;8.18;;;;;;;25.29;55.43;97501.56;10453970;28;20697;-52
2023/06/18 11:41:33;;;;;;;8.75;7.63;;;;;;;25.52;56.07;97506.25;10459395;28;20066;-52
2023/06/18 11:46:36;;;;;;;9.82;8.48;;;;;;;26.10;57.12;97498.88;10459248;28;20063;-52
2023/06/18 11:51:35;;;;;;;8.48;7.63;;;;;;;26.30;55.88;97494.00;10455996;28;20059;-52
2023/06/18 11:56:35;;;;;;;9.52;7.40;;;;;;;26.42;51.39;97489.66;10455679;28;20557;-52
2023/06/18 12:01:34;;;;;;;10.65;7.65;;;;;;;26.44;52.99;97482.41;10452465;28;20972;-51
2023/06/18 12:06:33;;;;;;;9.27;7.53;;;;;;;26.33;52.42;97398.06;10451178;28;20035;-51
2023/06/18 12:12:02;;;;;;;10.35;7.30;;;;;;;26.70;50.20;97478.78;10451272;28;20067;-51
2023/06/18 12:17:12;;;;;;;8.18;6.60;;;;;;;26.02;51.75;97473.75;10451464;28;20111;-51
2023/06/18 12:22:11;;;;;;;8.90;7.75;;;;;;;25.95;52.28;97462.72;10449434;28;20064;-53
2023/06/18 12:27:10;;;;;;;8.50;6.80;;;;;;;25.83;53.01;97458.19;10447809;28;20079;-52
2023/06/18 12:32:11;;;;;;;8.68;6.95;;;;;;;25.89;52.18;97452.47;10449585;28;20525;-52
2023/06/18 12:37:10;;;;;;;8.50;6.35;;;;;;;26.39;51.10;97448.16;10450573;28;20075;-52
2023/06/18 12:42:10;;;;;;;9.07;6.50;;;;;;;26.41;50.46;97448.91;10450036;28;20282;-51
2023/06/18 12:47:10;;;;;;;8.40;6.35;;;;;;;26.69;49.15;97442.47;10449971;28;20074;-52
2023/06/18 12:52:16;;;;;;;8.93;7.05;;;;;;;26.22;49.58;97451.16;10448903;28;20064;-52
2023/06/18 12:57:15;;;;;;;9.98;7.05;;;;;;;26.04;51.13;97450.56;10449571;28;20272;-52
2023/06/18 13:02:14;;;;;;;8.20;6.68;;;;;;;26.09;50.44;97436.00;10448228;28;20134;-53
2023/06/18 13:07:13;;;;;;;8.80;7.15;;;;;;;25.85;51.50;97435.03;10448791;28;20040;-51
2023/06/18 13:12:13;;;;;;;7.97;6.50;;;;;;;25.75;51.34;97434.81;10447055;28;20044;-53
2023/06/18 13:17:12;;;;;;;9.50;6.93;;;;;;;25.24;51.31;97438.13;10449537;28;20090;-50
2023/06/18 13:22:12;;;;;;;7.03;5.93;;;;;;;24.88;52.04;97439.56;10446533;28;20522;-53
2023/06/18 13:27:11;;;;;;;9.23;7.38;;;;;;;24.59;52.00;97400.75;10448013;28;20150;-52
2023/06/18 13:32:10;;;;;;;9.75;7.25;;;;;;;24.80;52.38;97446.28;10447580;28;20031;-53
2023/06/18 13:37:09;;;;;;;11.52;8.07;;;;;;;24.66;54.30;97444.50;10448513;28;20032;-52
2023/06/18 13:42:08;;;;;;;9.77;7.43;;;;;;;24.58;53.36;97445.00;10448122;28;20071;-52
2023/06/18 13:47:08;;;;;;;10.45;8.95;;;;;;;24.80;54.24;97425.06;10445649;28;20150;-51
2023/06/18 13:52:08;;;;;;;10.02;8.38;;;;;;;24.76;53.20;97444.81;10445157;28;20056;-50
2023/06/18 13:57:07;;;;;;;11.40;8.07;;;;;;;24.68;52.95;97447.91;10450486;28;20063;-51
2023/06/18 14:02:06;;;;;;;8.55;7.32;;;;;;;24.44;52.13;97455.63;10450190;28;20094;-51
2023/06/18 14:07:07;;;;;;;8.63;6.90;;;;;;;24.30;53.07;97447.66;10451629;28;20074;-50
2023/06/18 14:12:06;;;;;;;10.15;8.18;;;;;;;24.31;53.36;97449.34;10450150;28;20067;-49
2023/06/18 14:17:10;;;;;;;10.45;7.63;;;;;;;24.43;52.57;97445.97;10451102;28;20056;-52
2023/06/18 14:22:09;;;;;;;7.43;6.05;;;;;;;24.11;51.67;97447.91;10450214;28;20123;-52
2023/06/18 14:27:08;;;;;;;7.25;6.32;;;;;;;24.27;51.68;97451.34;10451582;28;20071;-51
2023/06/18 14:32:07;;;;;;;8.75;6.75;;;;;;;24.53;51.70;97454.19;10450049;28;20056;-52
2023/06/18 14:37:07;;;;;;;9.25;7.07;;;;;;;24.86;51.96;97446.78;10450146;28;20075;-52
2023/06/18 14:42:07;;;;;;;10.68;7.05;;;;;;;24.57;51.11;97407.97;10448965;28;20075;-52
2023/06/18 14:47:07;;;;;;;10.68;7.22;;;;;;;24.54;51.02;97451.44;10447493;28;20076;-51
2023/06/18 14:52:06;;;;;;;9.45;7.47;;;;;;;24.51;51.87;97466.69;10444363;28;20035;-52
2023/06/18 14:57:05;;;;;;;8.75;7.18;;;;;;;24.52;51.49;97463.97;10443171;28;20120;-51
2023/06/18 15:02:05;;;;;;;8.43;6.28;;;;;;;24.58;50.07;97470.69;10441772;28;20612;-54
2023/06/18 15:07:05;;;;;;;10.02;7.53;;;;;;;24.32;51.14;97473.13;10439892;28;20123;-52
2023/06/18 15:12:05;;;;;;;12.55;7.70;;;;;;;24.03;53.07;97465.13;10445844;28;20081;-50
2023/06/18 15:17:04;;;;;;;9.45;7.68;;;;;;;23.96;52.11;97482.34;10445772;28;20110;-52
2023/06/18 15:22:05;;;;;;;12.05;8.27;;;;;;;23.98;53.95;97480.47;10445642;28;20123;-49
2023/06/18 15:27:04;;;;;;;10.68;8.00;;;;;;;24.04;53.36;97484.53;10450718;28;20062;-49
2023/06/18 15:32:03;;;;;;;8.85;6.97;;;;;;;23.66;53.13;97484.16;10449926;28;20126;-52
2023/06/18 15:37:02;;;;;;;10.95;8.27;;;;;;;23.63;54.56;97478.09;10451193;28;20055;-51
2023/06/18 15:42:01;;;;;;;11.10;8.60;;;;;;;23.68;54.33;97488.41;10453043;28;20555;-51
2023/06/18 15:47:00;;;;;;;11.57;8.40;;;;;;;23.49;54.84;97486.00;10452546;28;20147;-50
2023/06/18 15:52:00;;;;;;;10.80;8.80;;;;;;;23.44;55.42;97485.34;10451552;28;20012;-52
2023/06/18 15:56:59;;;;;;;10.63;9.23;;;;;;;23.78;55.98;97486.09;10452590;28;20067;-51
2023/06/18 16:01:58;;;;;;;10.27;8.73;;;;;;;23.61;55.54;97492.38;10451063;28;20503;-49
2023/06/18 16:06:57;;;;;;;11.02;8.77;;;;;;;23.57;56.44;97499.63;10452120;28;20865;-51
2023/06/18 16:11:56;;;;;;;9.85;8.20;;;;;;;23.60;56.05;97498.59;10451911;28;20115;-49
2023/06/18 16:16:56;;;;;;;9.30;8.23;;;;;;;23.35;55.45;97485.88;10451134;28;20087;-49
2023/06/18 16:21:55;;;;;;;10.88;9.15;;;;;;;23.18;56.87;97495.63;10449248;28;20055;-49
2023/06/18 16:26:54;;;;;;;10.63;8.55;;;;;;;23.30;56.29;97498.50;10451278;28;20075;-51
2023/06/18 16:31:53;;;;;;;11.27;9.23;;;;;;;23.52;57.27;97508.78;10449365;28;20101;-51
2023/06/18 16:36:52;;;;;;;10.55;9.18;;;;;;;23.57;57.50;97507.56;10448475;28;20419;-51
2023/06/18 16:41:51;;;;;;;9.40;8.40;;;;;;;23.53;56.84;97511.34;10451118;28;20040;-51
2023/06/18 16:46:51;;;;;;;11.57;9.45;;;;;;;23.32;58.06;97508.06;10450657;28;20154;-49
2023/06/18 16:51:50;;;;;;;16.65;11.32;;;;;;;23.58;57.89;97511.06;10449797;28;20087;-50
2023/06/18 16:56:49;;;;;;;13.18;10.93;;;;;;;23.68;57.80;97516.69;10452489;28;20055;-49
2023/06/18 17:01:48;;;;;;;11.32;10.13;;;;;;;23.63;57.45;97516.94;10452593;28;20044;-52
2023/06/18 17:06:47;;;;;;;14.57;10.93;;;;;;;23.60;57.67;97520.63;10451907;28;20069;-52
2023/06/18 17:11:46;;;;;;;14.45;10.50;;;;;;;23.47;58.05;97517.00;10446158;28;20028;-49
2023/06/18 17:16:45;;;;;;;12.70;11.05;;;;;;;23.22;58.68;97528.09;10451082;28;20028;-49
2023/06/18 17:21:44;;;;;;;15.88;11.18;;;;;;;23.11;58.95;97525.16;10450411;28;20493;-50
2023/06/18 17:26:43;;;;;;;12.27;10.73;;;;;;;23.06;60.25;97538.66;10450631;28;20032;-51
2023/06/18 17:31:42;;;;;;;13.68;11.95;;;;;;;22.95;60.09;97543.69;10450054;28;20225;-49
2023/06/18 17:36:41;;;;;;;17.52;12.07;;;;;;;22.79;60.37;97536.59;10449740;28;20055;-52
2023/06/18 17:41:40;;;;;;;11.10;9.98;;;;;;;22.55;60.46;97511.41;10449295;28;20111;-49
2023/06/18 17:46:41;;;;;;;14.13;11.68;;;;;;;22.72;61.18;97536.97;10449029;28;20067;-52
2023/06/18 17:51:40;;;;;;;14.63;12.63;;;;;;;22.68;62.41;97546.00;10448352;28;20070;-51
2023/06/18 17:56:39;;;;;;;15.23;11.60;;;;;;;22.55;64.24;97549.31;10446984;28;20039;-49
2023/06/18 18:01:38;;;;;;;15.25;12.15;;;;;;;22.31;65.09;97534.72;10445571;28;20130;-51
2023/06/18 18:06:37;;;;;;;13.45;12.10;;;;;;;22.30;66.56;97565.59;10436796;28;20042;-52
2023/06/18 18:11:36;;;;;;;15.10;12.95;;;;;;;22.11;68.06;97576.25;10445163;28;20031;-52
2023/06/18 18:16:35;;;;;;;14.85;12.68;;;;;;;21.90;68.64;97583.41;10445146;28;20417;-51
2023/06/18 18:21:34;;;;;;;15.77;13.82;;;;;;;21.71;70.01;97588.75;10446295;28;20024;-49
2023/06/18 18:26:34;;;;;;;17.67;13.73;;;;;;;21.62;72.02;97599.75;10446525;28;20039;-50
2023/06/18 18:31:33;;;;;;;21.05;14.73;;;;;;;21.50;73.45;97603.84;10446742;28;20066;-50
2023/06/18 18:36:32;;;;;;;20.80;14.90;;;;;;;21.18;74.61;97573.66;10445754;28;20039;-50
2023/06/18 18:41:31;;;;;;;16.20;14.50;;;;;;;21.31;74.90;97610.91;10446826;28;20031;-52
2023/06/18 18:46:30;;;;;;;18.58;14.45;;;;;;;21.25;75.53;97611.19;10446272;28;20036;-51
2023/06/18 18:51:29;;;;;;;19.95;14.90;;;;;;;21.16;76.50;97616.88;10444536;28;20144;-52
2023/06/18 18:56:28;;;;;;;18.75;15.73;;;;;;;21.07;76.91;97623.41;10444321;28;20233;-50
2023/06/18 19:01:27;;;;;;;21.13;15.25;;;;;;;20.96;77.79;97626.56;10449701;28;20048;-52
2023/06/18 19:06:26;;;;;;;22.30;15.55;;;;;;;20.84;78.69;97632.34;10452706;28;20036;-49
2023/06/18 19:11:25;;;;;;;21.85;15.07;;;;;;;20.74;79.96;97642.47;10454067;28;20502;-52
2023/06/18 19:16:25;;;;;;;20.92;16.70;;;;;;;20.57;80.57;97639.72;10453989;28;20087;-51
2023/06/18 19:21:24;;;;;;;17.58;15.73;;;;;;;20.38;81.84;97644.88;10453840;28;20119;-51
2023/06/18 19:26:24;;;;;;;19.08;15.85;;;;;;;20.19;82.38;97640.38;10453811;28;20479;-51
2023/06/18 19:31:23;;;;;;;21.65;16.67;;;;;;;19.97;82.46;97658.81;10426308;28;20078;-51
2023/06/18 19:36:22;;;;;;;21.77;17.08;;;;;;;19.85;83.17;97662.81;10452998;28;20028;-49
2023/06/18 19:41:21;;;;;;;21.88;18.98;;;;;;;19.70;84.32;97662.56;10452057;28;20030;-50
2023/06/18 19:46:20;;;;;;;25.08;20.08;;;;;;;19.51;85.61;97660.63;10450460;28;20058;-51
2023/06/18 19:51:19;;;;;;;25.52;20.92;;;;;;;19.39;87.14;97664.59;10451437;28;20055;-52
2023/06/18 19:56:18;;;;;;;29.77;20.67;;;;;;;19.23;87.57;97664.31;10452401;28;20036;-52
2023/06/18 20:01:17;;;;;;;27.02;20.95;;;;;;;19.10;89.21;97663.03;10451259;28;20482;-49
2023/06/18 20:06:16;;;;;;;23.02;19.23;;;;;;;19.00;89.41;97659.88;10450292;28;20431;-51
2023/06/18 20:11:15;;;;;;;27.75;20.92;;;;;;;18.89;90.07;97664.66;10448675;28;20056;-52
2023/06/18 20:16:14;;;;;;;27.33;20.85;;;;;;;18.80;90.54;97660.59;10450480;28;20024;-52
2023/06/18 20:21:13;;;;;;;23.08;18.40;;;;;;;18.76;90.83;97668.63;10452232;28;20173;-53
2023/06/18 20:26:12;;;;;;;332.92;43.97;;;;;;;18.47;91.33;97620.56;10450952;28;20132;-52
2023/06/18 20:31:11;;;;;;;22.90;17.20;;;;;;;18.66;91.30;97669.84;10450897;28;20483;-51
2023/06/18 20:36:10;;;;;;;20.92;18.25;;;;;;;18.63;91.20;97662.09;10451151;28;20491;-52
2023/06/18 20:41:10;;;;;;;24.67;18.80;;;;;;;18.63;91.44;97673.44;10449066;28;20064;-51
2023/06/18 20:46:09;;;;;;;17.63;14.05;;;;;;;18.57;91.40;97669.28;10450066;28;20115;-51
2023/06/18 20:51:08;;;;;;;222.63;32.08;;;;;;;18.53;92.92;97683.41;10450689;28;20039;-49
2023/06/18 20:56:08;;;;;;;25.33;19.35;;;;;;;18.48;92.99;97695.88;10449441;28;20024;-49
2023/06/18 21:01:07;;;;;;;24.67;18.77;;;;;;;18.30;94.33;97696.47;10449083;28;20521;-50
2023/06/18 21:06:06;;;;;;;21.23;18.90;;;;;;;18.10;95.44;97697.09;10450145;28;20183;-52
2023/06/18 21:11:05;;;;;;;31.35;18.48;;;;;;;18.13;95.13;97689.16;10447820;28;20123;-50
2023/06/18 21:16:04;;;;;;;22.08;17.80;;;;;;;18.26;94.57;97694.84;10448890;28;20015;-49
2023/06/18 21:21:03;;;;;;;21.77;17.60;;;;;;;18.30;94.36;97696.47;10449560;28;20038;-51
2023/06/18 21:26:02;;;;;;;24.75;16.83;;;;;;;18.28;94.14;97690.41;10449191;28;20103;-52
2023/06/18 21:31:02;;;;;;;22.02;18.23;;;;;;;18.30;93.99;97688.59;10448661;28;20055;-51
2023/06/18 21:36:00;;;;;;;23.80;18.38;;;;;;;18.27;93.88;97691.28;10449027;28;20059;-51
2023/06/18 21:40:59;;;;;;;21.70;19.17;;;;;;;18.26;93.95;97686.97;10448376;28;20023;-54
2023/06/18 21:46:00;;;;;;;27.60;21.13;;;;;;;18.18;93.99;97682.81;10447073;28;20482;-50
2023/06/18 21:51:00;;;;;;;29.05;22.75;;;;;;;18.15;94.36;97688.19;10448240;28;20075;-54
2023/06/18 21:56:03;;;;;;;26.90;21.27;;;;;;;18.10;94.38;97695.34;10449163;28;20078;-51
2023/06/18 22:01:05;;;;;;;29.95;23.02;;;;;;;18.04;94.92;97684.19;10450496;28;20063;-50
2023/06/18 22:06:06;;;;;;;26.75;20.77;;;;;;;18.03;95.39;97690.34;10451411;28;20475;-50
2023/06/18 22:11:05;;;;;;;26.55;20.05;;;;;;;17.73;96.80;97691.22;10450650;28;20455;-52
2023/06/18 22:16:04;;;;;;;26.05;20.75;;;;;;;17.66;97.00;97687.09;10448784;28;20346;-50
2023/06/18 22:21:04;;;;;;;28.67;21.23;;;;;;;17.62;96.89;97688.06;10444529;28;20035;-52
2023/06/18 22:26:04;;;;;;;28.17;21.40;;;;;;;17.58;96.63;97682.97;10444653;28;20123;-50
2023/06/18 22:31:03;;;;;;;29.40;22.05;;;;;;;17.51;96.44;97680.50;10446471;28;20498;-50
2023/06/18 22:36:02;;;;;;;31.73;23.23;;;;;;;17.44;96.75;97678.13;10454957;28;20028;-52
2023/06/18 22:41:01;;;;;;;30.70;23.40;;;;;;;17.34;97.00;97682.78;10458478;28;20126;-51
2023/06/18 22:46:03;;;;;;;32.42;23.75;;;;;;;17.29;97.37;97690.78;10457879;28;20383;-51
2023/06/18 22:51:02;;;;;;;29.08;21.95;;;;;;;17.20;97.86;97690.19;10457729;28;20075;-51